sensor_id;sensor_type;location;lat;lon;timestamp;P1;durP1;ratioP1;P2;durP2;ratioP2
65049;SDS011;52090;51.224;-2.328;2023-01-25T00:01:07;33.00;;;20.52;;
65049;SDS011;52090;51.224;-2.328;2023-01-25T00:04:50;37.30;;;22.45;;
65049;SDS011;52090;51.224;-2.328;2023-01-25T00:08:32;38.45;;;20.35;;
65049;SDS011;52090;51.224;-2.328;2023-01-25T00:12:15;38.33;;;22.60;;
65049;SDS011;52090;51.224;-2.328;2023-01-25T00:16:01;35.70;;;22.23;;
65049;SDS011;52090;51.224;-2.328;2023-01-25T00:19:44;42.28;;;24.50;;
65049;SDS011;52090;51.224;-2.328;2023-01-25T00:23:26;39.17;;;23.27;;
65049;SDS011;52090;51.224;-2.328;2023-01-25T00:27:08;44.90;;;23.10;;
65049;SDS011;52090;51.224;-2.328;2023-01-25T00:30:50;45.22;;;23.83;;
65049;SDS011;52090;51.224;-2.328;2023-01-25T00:42:10;38.88;;;21.77;;
65049;SDS011;52090;51.224;-2.328;2023-01-25T00:45:58;40.13;;;22.83;;
65049;SDS011;52090;51.224;-2.328;2023-01-25T00:49:41;40.92;;;21.80;;
65049;SDS011;52090;51.224;-2.328;2023-01-25T00:57:06;37.10;;;20.38;;
65049;SDS011;52090;51.224;-2.328;2023-01-25T01:00:50;36.75;;;20.75;;
65049;SDS011;52090;51.224;-2.328;2023-01-25T01:04:34;35.42;;;20.33;;
65049;SDS011;52090;51.224;-2.328;2023-01-25T01:08:16;36.03;;;20.50;;
65049;SDS011;52090;51.224;-2.328;2023-01-25T01:11:58;42.05;;;23.23;;
65049;SDS011;52090;51.224;-2.328;2023-01-25T01:15:39;39.38;;;22.27;;
65049;SDS011;52090;51.224;-2.328;2023-01-25T01:19:21;42.08;;;23.77;;
65049;SDS011;52090;51.224;-2.328;2023-01-25T01:23:03;41.20;;;23.75;;
65049;SDS011;52090;51.224;-2.328;2023-01-25T01:26:46;43.80;;;24.25;;
65049;SDS011;52090;51.224;-2.328;2023-01-25T01:30:28;47.58;;;25.50;;
65049;SDS011;52090;51.224;-2.328;2023-01-25T01:34:11;51.45;;;26.98;;
65049;SDS011;52090;51.224;-2.328;2023-01-25T01:37:55;53.83;;;25.30;;
65049;SDS011;52090;51.224;-2.328;2023-01-25T01:41:37;52.63;;;27.27;;
65049;SDS011;52090;51.224;-2.328;2023-01-25T01:49:28;49.95;;;25.95;;
65049;SDS011;52090;51.224;-2.328;2023-01-25T01:53:13;49.60;;;24.27;;
65049;SDS011;52090;51.224;-2.328;2023-01-25T02:00:41;49.15;;;25.17;;
65049;SDS011;52090;51.224;-2.328;2023-01-25T02:04:24;49.73;;;24.50;;
65049;SDS011;52090;51.224;-2.328;2023-01-25T02:08:09;56.33;;;25.63;;
65049;SDS011;52090;51.224;-2.328;2023-01-25T02:11:54;55.60;;;26.60;;
65049;SDS011;52090;51.224;-2.328;2023-01-25T02:15:43;58.22;;;27.50;;
65049;SDS011;52090;51.224;-2.328;2023-01-25T02:23:43;68.15;;;30.30;;
65049;SDS011;52090;51.224;-2.328;2023-01-25T02:27:37;64.75;;;29.15;;
65049;SDS011;52090;51.224;-2.328;2023-01-25T02:31:34;75.57;;;32.08;;
65049;SDS011;52090;51.224;-2.328;2023-01-25T02:39:07;75.05;;;31.75;;
65049;SDS011;52090;51.224;-2.328;2023-01-25T02:42:53;74.88;;;32.00;;
65049;SDS011;52090;51.224;-2.328;2023-01-25T02:46:35;73.88;;;31.70;;
65049;SDS011;52090;51.224;-2.328;2023-01-25T02:50:19;74.75;;;35.70;;
65049;SDS011;52090;51.224;-2.328;2023-01-25T02:54:01;68.32;;;31.92;;
65049;SDS011;52090;51.224;-2.328;2023-01-25T02:57:46;72.47;;;29.70;;
65049;SDS011;52090;51.224;-2.328;2023-01-25T03:01:33;84.18;;;35.20;;
65049;SDS011;52090;51.224;-2.328;2023-01-25T03:05:19;68.13;;;28.02;;
65049;SDS011;52090;51.224;-2.328;2023-01-25T03:09:02;82.10;;;34.75;;
65049;SDS011;52090;51.224;-2.328;2023-01-25T03:12:45;73.57;;;35.88;;
65049;SDS011;52090;51.224;-2.328;2023-01-25T03:16:29;88.38;;;33.58;;
65049;SDS011;52090;51.224;-2.328;2023-01-25T03:20:12;76.97;;;30.52;;
65049;SDS011;52090;51.224;-2.328;2023-01-25T03:23:57;66.72;;;30.60;;
65049;SDS011;52090;51.224;-2.328;2023-01-25T03:27:41;79.55;;;32.05;;
65049;SDS011;52090;51.224;-2.328;2023-01-25T03:31:23;83.65;;;32.90;;
65049;SDS011;52090;51.224;-2.328;2023-01-25T03:35:05;79.90;;;35.08;;
65049;SDS011;52090;51.224;-2.328;2023-01-25T03:38:47;80.57;;;34.23;;
65049;SDS011;52090;51.224;-2.328;2023-01-25T03:42:29;79.55;;;32.90;;
65049;SDS011;52090;51.224;-2.328;2023-01-25T03:46:11;85.03;;;34.72;;
65049;SDS011;52090;51.224;-2.328;2023-01-25T03:49:53;89.28;;;36.90;;
65049;SDS011;52090;51.224;-2.328;2023-01-25T03:53:34;87.13;;;34.22;;
65049;SDS011;52090;51.224;-2.328;2023-01-25T03:57:16;92.15;;;37.00;;
65049;SDS011;52090;51.224;-2.328;2023-01-25T04:00:58;84.97;;;33.17;;
65049;SDS011;52090;51.224;-2.328;2023-01-25T04:04:41;89.50;;;36.13;;
65049;SDS011;52090;51.224;-2.328;2023-01-25T04:08:23;93.20;;;34.88;;
65049;SDS011;52090;51.224;-2.328;2023-01-25T04:12:05;76.60;;;35.20;;
65049;SDS011;52090;51.224;-2.328;2023-01-25T04:15:47;95.35;;;39.05;;
65049;SDS011;52090;51.224;-2.328;2023-01-25T04:19:29;98.60;;;36.75;;
65049;SDS011;52090;51.224;-2.328;2023-01-25T04:23:11;79.20;;;36.13;;
65049;SDS011;52090;51.224;-2.328;2023-01-25T04:26:53;75.68;;;33.53;;
65049;SDS011;52090;51.224;-2.328;2023-01-25T04:30:34;76.93;;;34.10;;
65049;SDS011;52090;51.224;-2.328;2023-01-25T04:34:16;83.80;;;35.00;;
65049;SDS011;52090;51.224;-2.328;2023-01-25T04:37:58;92.07;;;40.10;;
65049;SDS011;52090;51.224;-2.328;2023-01-25T04:41:40;82.78;;;38.25;;
65049;SDS011;52090;51.224;-2.328;2023-01-25T04:45:25;85.95;;;38.00;;
65049;SDS011;52090;51.224;-2.328;2023-01-25T04:49:06;88.47;;;38.53;;
65049;SDS011;52090;51.224;-2.328;2023-01-25T04:52:48;80.00;;;37.28;;
65049;SDS011;52090;51.224;-2.328;2023-01-25T04:56:30;74.45;;;38.45;;
65049;SDS011;52090;51.224;-2.328;2023-01-25T05:00:12;73.47;;;36.67;;
65049;SDS011;52090;51.224;-2.328;2023-01-25T05:03:54;71.82;;;35.40;;
65049;SDS011;52090;51.224;-2.328;2023-01-25T05:07:36;74.65;;;34.00;;
65049;SDS011;52090;51.224;-2.328;2023-01-25T05:11:18;69.95;;;34.00;;
65049;SDS011;52090;51.224;-2.328;2023-01-25T05:14:59;74.10;;;36.00;;
65049;SDS011;52090;51.224;-2.328;2023-01-25T05:18:41;70.22;;;34.88;;
65049;SDS011;52090;51.224;-2.328;2023-01-25T05:22:29;70.45;;;34.45;;
65049;SDS011;52090;51.224;-2.328;2023-01-25T05:26:11;69.78;;;37.10;;
65049;SDS011;52090;51.224;-2.328;2023-01-25T05:30:11;65.03;;;33.40;;
65049;SDS011;52090;51.224;-2.328;2023-01-25T05:33:53;61.15;;;31.88;;
65049;SDS011;52090;51.224;-2.328;2023-01-25T05:37:35;62.88;;;30.65;;
65049;SDS011;52090;51.224;-2.328;2023-01-25T05:41:17;61.65;;;31.95;;
65049;SDS011;52090;51.224;-2.328;2023-01-25T05:44:59;66.78;;;30.73;;
65049;SDS011;52090;51.224;-2.328;2023-01-25T05:48:41;64.80;;;32.83;;
65049;SDS011;52090;51.224;-2.328;2023-01-25T05:52:22;61.97;;;34.28;;
65049;SDS011;52090;51.224;-2.328;2023-01-25T05:56:05;56.40;;;29.23;;
65049;SDS011;52090;51.224;-2.328;2023-01-25T05:59:48;62.05;;;33.92;;
65049;SDS011;52090;51.224;-2.328;2023-01-25T06:03:29;54.65;;;30.70;;
65049;SDS011;52090;51.224;-2.328;2023-01-25T06:07:11;64.57;;;35.38;;
65049;SDS011;52090;51.224;-2.328;2023-01-25T06:10:53;70.85;;;37.55;;
65049;SDS011;52090;51.224;-2.328;2023-01-25T06:14:35;63.72;;;33.78;;
65049;SDS011;52090;51.224;-2.328;2023-01-25T06:18:17;64.28;;;32.33;;
65049;SDS011;52090;51.224;-2.328;2023-01-25T06:21:59;52.17;;;31.38;;
65049;SDS011;52090;51.224;-2.328;2023-01-25T06:25:40;59.97;;;31.90;;
65049;SDS011;52090;51.224;-2.328;2023-01-25T06:29:22;61.13;;;33.90;;
65049;SDS011;52090;51.224;-2.328;2023-01-25T06:33:04;59.13;;;31.33;;
65049;SDS011;52090;51.224;-2.328;2023-01-25T06:36:46;58.55;;;31.75;;
65049;SDS011;52090;51.224;-2.328;2023-01-25T06:40:28;59.78;;;31.98;;
65049;SDS011;52090;51.224;-2.328;2023-01-25T06:44:10;70.28;;;35.28;;
65049;SDS011;52090;51.224;-2.328;2023-01-25T06:47:52;54.38;;;30.20;;
65049;SDS011;52090;51.224;-2.328;2023-01-25T06:51:34;56.10;;;28.73;;
65049;SDS011;52090;51.224;-2.328;2023-01-25T06:55:15;51.45;;;27.05;;
65049;SDS011;52090;51.224;-2.328;2023-01-25T06:58:57;57.58;;;29.42;;
65049;SDS011;52090;51.224;-2.328;2023-01-25T07:02:39;61.35;;;30.00;;
65049;SDS011;52090;51.224;-2.328;2023-01-25T07:06:21;63.13;;;33.08;;
65049;SDS011;52090;51.224;-2.328;2023-01-25T07:10:04;69.32;;;31.42;;
65049;SDS011;52090;51.224;-2.328;2023-01-25T07:13:47;211.68;;;104.63;;
65049;SDS011;52090;51.224;-2.328;2023-01-25T07:17:29;111.90;;;54.20;;
65049;SDS011;52090;51.224;-2.328;2023-01-25T07:21:14;78.55;;;41.20;;
65049;SDS011;52090;51.224;-2.328;2023-01-25T07:24:57;70.85;;;36.03;;
65049;SDS011;52090;51.224;-2.328;2023-01-25T07:28:40;77.20;;;41.63;;
65049;SDS011;52090;51.224;-2.328;2023-01-25T07:32:21;65.20;;;30.33;;
65049;SDS011;52090;51.224;-2.328;2023-01-25T07:36:04;60.10;;;32.00;;
65049;SDS011;52090;51.224;-2.328;2023-01-25T07:39:47;60.00;;;32.30;;
65049;SDS011;52090;51.224;-2.328;2023-01-25T07:43:31;58.38;;;34.33;;
65049;SDS011;52090;51.224;-2.328;2023-01-25T07:47:13;61.15;;;29.30;;
65049;SDS011;52090;51.224;-2.328;2023-01-25T07:51:04;58.67;;;32.00;;
65049;SDS011;52090;51.224;-2.328;2023-01-25T07:54:51;52.92;;;28.02;;
65049;SDS011;52090;51.224;-2.328;2023-01-25T07:58:33;50.97;;;27.35;;
65049;SDS011;52090;51.224;-2.328;2023-01-25T08:02:15;52.72;;;24.52;;
65049;SDS011;52090;51.224;-2.328;2023-01-25T08:05:57;51.22;;;25.08;;
65049;SDS011;52090;51.224;-2.328;2023-01-25T08:09:39;53.35;;;29.90;;
65049;SDS011;52090;51.224;-2.328;2023-01-25T08:13:22;61.80;;;27.50;;
65049;SDS011;52090;51.224;-2.328;2023-01-25T08:17:03;59.15;;;26.05;;
65049;SDS011;52090;51.224;-2.328;2023-01-25T08:20:45;65.95;;;30.65;;
65049;SDS011;52090;51.224;-2.328;2023-01-25T08:24:27;55.97;;;28.67;;
65049;SDS011;52090;51.224;-2.328;2023-01-25T08:28:09;44.92;;;22.77;;
65049;SDS011;52090;51.224;-2.328;2023-01-25T08:31:51;51.38;;;23.95;;
65049;SDS011;52090;51.224;-2.328;2023-01-25T08:35:33;51.80;;;23.13;;
65049;SDS011;52090;51.224;-2.328;2023-01-25T08:39:16;58.25;;;27.90;;
65049;SDS011;52090;51.224;-2.328;2023-01-25T08:42:58;60.78;;;28.13;;
65049;SDS011;52090;51.224;-2.328;2023-01-25T08:46:40;58.28;;;26.05;;
65049;SDS011;52090;51.224;-2.328;2023-01-25T08:50:22;59.75;;;27.58;;
65049;SDS011;52090;51.224;-2.328;2023-01-25T08:54:07;52.83;;;26.30;;
65049;SDS011;52090;51.224;-2.328;2023-01-25T08:57:51;62.38;;;29.58;;
65049;SDS011;52090;51.224;-2.328;2023-01-25T09:01:36;57.40;;;26.50;;
65049;SDS011;52090;51.224;-2.328;2023-01-25T09:05:18;52.40;;;27.00;;
65049;SDS011;52090;51.224;-2.328;2023-01-25T09:09:00;58.83;;;25.90;;
65049;SDS011;52090;51.224;-2.328;2023-01-25T09:12:42;53.83;;;25.38;;
65049;SDS011;52090;51.224;-2.328;2023-01-25T09:16:26;52.67;;;24.52;;
65049;SDS011;52090;51.224;-2.328;2023-01-25T09:20:10;48.67;;;25.35;;
65049;SDS011;52090;51.224;-2.328;2023-01-25T09:23:53;48.70;;;24.58;;
65049;SDS011;52090;51.224;-2.328;2023-01-25T09:27:49;50.83;;;26.55;;
65049;SDS011;52090;51.224;-2.328;2023-01-25T09:31:31;54.60;;;28.15;;
65049;SDS011;52090;51.224;-2.328;2023-01-25T09:35:14;51.17;;;26.20;;
65049;SDS011;52090;51.224;-2.328;2023-01-25T09:38:55;50.25;;;28.30;;
65049;SDS011;52090;51.224;-2.328;2023-01-25T09:46:33;51.70;;;28.70;;
65049;SDS011;52090;51.224;-2.328;2023-01-25T09:50:33;55.17;;;27.65;;
65049;SDS011;52090;51.224;-2.328;2023-01-25T09:54:18;54.72;;;26.90;;
65049;SDS011;52090;51.224;-2.328;2023-01-25T09:58:01;66.43;;;33.47;;
65049;SDS011;52090;51.224;-2.328;2023-01-25T10:01:52;61.70;;;32.40;;
65049;SDS011;52090;51.224;-2.328;2023-01-25T10:05:55;57.85;;;28.90;;
65049;SDS011;52090;51.224;-2.328;2023-01-25T10:09:51;57.72;;;25.23;;
65049;SDS011;52090;51.224;-2.328;2023-01-25T10:13:57;62.97;;;31.83;;
65049;SDS011;52090;51.224;-2.328;2023-01-25T10:17:40;58.05;;;27.08;;
65049;SDS011;52090;51.224;-2.328;2023-01-25T10:21:25;48.05;;;23.75;;
65049;SDS011;52090;51.224;-2.328;2023-01-25T10:29:20;63.22;;;35.90;;
65049;SDS011;52090;51.224;-2.328;2023-01-25T10:33:12;65.32;;;31.83;;
65049;SDS011;52090;51.224;-2.328;2023-01-25T10:37:02;68.10;;;30.90;;
65049;SDS011;52090;51.224;-2.328;2023-01-25T10:40:54;63.58;;;32.75;;
65049;SDS011;52090;51.224;-2.328;2023-01-25T10:44:42;54.00;;;27.00;;
65049;SDS011;52090;51.224;-2.328;2023-01-25T10:48:31;45.95;;;25.33;;
65049;SDS011;52090;51.224;-2.328;2023-01-25T10:52:17;52.83;;;26.77;;
65049;SDS011;52090;51.224;-2.328;2023-01-25T10:56:24;47.22;;;22.75;;
65049;SDS011;52090;51.224;-2.328;2023-01-25T11:00:06;45.90;;;22.35;;
65049;SDS011;52090;51.224;-2.328;2023-01-25T11:04:00;41.22;;;21.92;;
65049;SDS011;52090;51.224;-2.328;2023-01-25T11:07:43;44.85;;;21.05;;
65049;SDS011;52090;51.224;-2.328;2023-01-25T11:11:35;48.38;;;23.55;;
65049;SDS011;52090;51.224;-2.328;2023-01-25T11:15:23;45.83;;;26.30;;
65049;SDS011;52090;51.224;-2.328;2023-01-25T11:19:22;47.17;;;22.48;;
65049;SDS011;52090;51.224;-2.328;2023-01-25T11:23:21;46.08;;;23.17;;
65049;SDS011;52090;51.224;-2.328;2023-01-25T11:30:52;45.95;;;23.52;;
65049;SDS011;52090;51.224;-2.328;2023-01-25T11:34:34;45.67;;;23.25;;
65049;SDS011;52090;51.224;-2.328;2023-01-25T11:38:17;55.30;;;29.63;;
65049;SDS011;52090;51.224;-2.328;2023-01-25T11:42:08;62.80;;;36.10;;
65049;SDS011;52090;51.224;-2.328;2023-01-25T12:11:03;54.08;;;28.30;;
65049;SDS011;52090;51.224;-2.328;2023-01-25T12:14:56;50.50;;;30.98;;
65049;SDS011;52090;51.224;-2.328;2023-01-25T12:18:51;48.83;;;26.58;;
65049;SDS011;52090;51.224;-2.328;2023-01-25T12:30:25;43.80;;;22.80;;
65049;SDS011;52090;51.224;-2.328;2023-01-25T12:34:37;52.13;;;27.13;;
65049;SDS011;52090;51.224;-2.328;2023-01-25T12:42:47;54.50;;;28.83;;
65049;SDS011;52090;51.224;-2.328;2023-01-25T12:46:36;47.58;;;24.88;;
65049;SDS011;52090;51.224;-2.328;2023-01-25T12:50:24;50.63;;;23.67;;
65049;SDS011;52090;51.224;-2.328;2023-01-25T12:54:20;34.90;;;17.30;;
65049;SDS011;52090;51.224;-2.328;2023-01-25T13:02:27;25.50;;;13.82;;
65049;SDS011;52090;51.224;-2.328;2023-01-25T13:06:35;25.65;;;13.15;;
65049;SDS011;52090;51.224;-2.328;2023-01-25T13:10:37;21.10;;;11.80;;
65049;SDS011;52090;51.224;-2.328;2023-01-25T13:14:37;24.25;;;13.20;;
65049;SDS011;52090;51.224;-2.328;2023-01-25T13:22:05;22.92;;;11.88;;
65049;SDS011;52090;51.224;-2.328;2023-01-25T13:25:49;26.70;;;14.45;;
65049;SDS011;52090;51.224;-2.328;2023-01-25T13:33:38;29.27;;;14.25;;
65049;SDS011;52090;51.224;-2.328;2023-01-25T13:37:20;29.45;;;15.70;;
65049;SDS011;52090;51.224;-2.328;2023-01-25T13:41:13;32.75;;;15.23;;
65049;SDS011;52090;51.224;-2.328;2023-01-25T13:44:58;33.67;;;16.63;;
65049;SDS011;52090;51.224;-2.328;2023-01-25T13:48:54;30.38;;;16.10;;
65049;SDS011;52090;51.224;-2.328;2023-01-25T13:52:54;32.30;;;15.75;;
65049;SDS011;52090;51.224;-2.328;2023-01-25T13:57:04;31.23;;;15.68;;
65049;SDS011;52090;51.224;-2.328;2023-01-25T14:04:37;50.55;;;27.63;;
65049;SDS011;52090;51.224;-2.328;2023-01-25T14:08:19;49.28;;;23.67;;
65049;SDS011;52090;51.224;-2.328;2023-01-25T14:12:03;51.90;;;24.88;;
65049;SDS011;52090;51.224;-2.328;2023-01-25T14:15:55;59.75;;;27.10;;
65049;SDS011;52090;51.224;-2.328;2023-01-25T14:19:43;57.33;;;28.83;;
65049;SDS011;52090;51.224;-2.328;2023-01-25T14:23:29;54.88;;;24.27;;
65049;SDS011;52090;51.224;-2.328;2023-01-25T14:27:13;59.67;;;28.05;;
65049;SDS011;52090;51.224;-2.328;2023-01-25T14:30:59;54.33;;;23.33;;
65049;SDS011;52090;51.224;-2.328;2023-01-25T14:34:42;54.05;;;21.15;;
65049;SDS011;52090;51.224;-2.328;2023-01-25T14:38:25;54.13;;;24.55;;
65049;SDS011;52090;51.224;-2.328;2023-01-25T14:42:09;62.33;;;28.98;;
65049;SDS011;52090;51.224;-2.328;2023-01-25T14:45:52;94.03;;;45.70;;
65049;SDS011;52090;51.224;-2.328;2023-01-25T14:49:34;57.20;;;26.65;;
65049;SDS011;52090;51.224;-2.328;2023-01-25T14:53:18;68.68;;;29.35;;
65049;SDS011;52090;51.224;-2.328;2023-01-25T14:57:03;85.40;;;42.97;;
65049;SDS011;52090;51.224;-2.328;2023-01-25T15:00:50;76.03;;;38.83;;
65049;SDS011;52090;51.224;-2.328;2023-01-25T15:04:33;61.45;;;28.80;;
65049;SDS011;52090;51.224;-2.328;2023-01-25T15:08:37;70.77;;;30.87;;
65049;SDS011;52090;51.224;-2.328;2023-01-25T15:12:37;47.95;;;25.90;;
65049;SDS011;52090;51.224;-2.328;2023-01-25T15:16:19;57.25;;;30.30;;
65049;SDS011;52090;51.224;-2.328;2023-01-25T15:24:09;56.35;;;29.60;;
65049;SDS011;52090;51.224;-2.328;2023-01-25T15:27:52;55.15;;;29.58;;
65049;SDS011;52090;51.224;-2.328;2023-01-25T15:31:35;54.88;;;29.90;;
65049;SDS011;52090;51.224;-2.328;2023-01-25T15:35:23;64.07;;;31.08;;
65049;SDS011;52090;51.224;-2.328;2023-01-25T15:39:11;58.08;;;30.83;;
65049;SDS011;52090;51.224;-2.328;2023-01-25T15:42:55;62.80;;;28.83;;
65049;SDS011;52090;51.224;-2.328;2023-01-25T15:46:38;58.97;;;28.15;;
65049;SDS011;52090;51.224;-2.328;2023-01-25T15:50:21;58.15;;;28.48;;
65049;SDS011;52090;51.224;-2.328;2023-01-25T15:54:03;60.50;;;32.92;;
65049;SDS011;52090;51.224;-2.328;2023-01-25T15:57:47;65.05;;;28.92;;
65049;SDS011;52090;51.224;-2.328;2023-01-25T16:01:29;59.80;;;25.08;;
65049;SDS011;52090;51.224;-2.328;2023-01-25T16:05:11;55.30;;;25.75;;
65049;SDS011;52090;51.224;-2.328;2023-01-25T16:08:53;61.72;;;27.98;;
65049;SDS011;52090;51.224;-2.328;2023-01-25T16:12:35;50.90;;;23.92;;
65049;SDS011;52090;51.224;-2.328;2023-01-25T16:16:17;56.88;;;24.20;;
65049;SDS011;52090;51.224;-2.328;2023-01-25T16:20:04;53.30;;;24.38;;
65049;SDS011;52090;51.224;-2.328;2023-01-25T16:23:47;68.07;;;26.23;;
65049;SDS011;52090;51.224;-2.328;2023-01-25T16:27:29;60.17;;;26.65;;
65049;SDS011;52090;51.224;-2.328;2023-01-25T16:31:16;61.67;;;28.88;;
65049;SDS011;52090;51.224;-2.328;2023-01-25T16:35:12;59.10;;;30.67;;
65049;SDS011;52090;51.224;-2.328;2023-01-25T16:38:54;65.85;;;30.23;;
65049;SDS011;52090;51.224;-2.328;2023-01-25T16:42:36;68.68;;;32.08;;
65049;SDS011;52090;51.224;-2.328;2023-01-25T16:46:18;67.00;;;30.45;;
65049;SDS011;52090;51.224;-2.328;2023-01-25T16:50:02;60.40;;;27.48;;
65049;SDS011;52090;51.224;-2.328;2023-01-25T16:53:45;45.73;;;21.97;;
65049;SDS011;52090;51.224;-2.328;2023-01-25T17:01:10;56.78;;;30.08;;
65049;SDS011;52090;51.224;-2.328;2023-01-25T17:04:53;46.95;;;23.63;;
65049;SDS011;52090;51.224;-2.328;2023-01-25T17:08:35;56.20;;;30.58;;
65049;SDS011;52090;51.224;-2.328;2023-01-25T17:12:16;57.15;;;31.20;;
65049;SDS011;52090;51.224;-2.328;2023-01-25T17:15:58;50.85;;;26.75;;
65049;SDS011;52090;51.224;-2.328;2023-01-25T17:19:43;65.82;;;29.50;;
65049;SDS011;52090;51.224;-2.328;2023-01-25T17:23:25;72.25;;;33.15;;
65049;SDS011;52090;51.224;-2.328;2023-01-25T17:27:08;66.30;;;31.55;;
65049;SDS011;52090;51.224;-2.328;2023-01-25T17:30:50;63.70;;;32.03;;
65049;SDS011;52090;51.224;-2.328;2023-01-25T17:34:34;67.80;;;34.78;;
65049;SDS011;52090;51.224;-2.328;2023-01-25T17:38:16;72.72;;;37.38;;
65049;SDS011;52090;51.224;-2.328;2023-01-25T17:41:59;70.15;;;35.53;;
65049;SDS011;52090;51.224;-2.328;2023-01-25T17:45:41;85.25;;;49.90;;
65049;SDS011;52090;51.224;-2.328;2023-01-25T17:49:22;78.82;;;43.17;;
65049;SDS011;52090;51.224;-2.328;2023-01-25T17:53:06;55.17;;;29.75;;
65049;SDS011;52090;51.224;-2.328;2023-01-25T17:56:48;66.72;;;31.00;;
65049;SDS011;52090;51.224;-2.328;2023-01-25T18:00:30;57.83;;;28.65;;
65049;SDS011;52090;51.224;-2.328;2023-01-25T18:04:12;50.92;;;27.00;;
65049;SDS011;52090;51.224;-2.328;2023-01-25T18:07:57;63.80;;;34.58;;
65049;SDS011;52090;51.224;-2.328;2023-01-25T18:11:40;51.70;;;27.58;;
65049;SDS011;52090;51.224;-2.328;2023-01-25T18:15:25;52.42;;;31.58;;
65049;SDS011;52090;51.224;-2.328;2023-01-25T18:19:08;60.55;;;31.85;;
65049;SDS011;52090;51.224;-2.328;2023-01-25T18:22:50;73.67;;;42.70;;
65049;SDS011;52090;51.224;-2.328;2023-01-25T18:26:33;64.68;;;35.92;;
65049;SDS011;52090;51.224;-2.328;2023-01-25T18:34:17;74.63;;;44.35;;
65049;SDS011;52090;51.224;-2.328;2023-01-25T18:37:59;74.50;;;44.22;;
65049;SDS011;52090;51.224;-2.328;2023-01-25T18:41:41;78.40;;;49.13;;
65049;SDS011;52090;51.224;-2.328;2023-01-25T18:45:24;80.32;;;48.95;;
65049;SDS011;52090;51.224;-2.328;2023-01-25T18:49:06;60.75;;;37.97;;
65049;SDS011;52090;51.224;-2.328;2023-01-25T18:52:50;62.90;;;36.85;;
65049;SDS011;52090;51.224;-2.328;2023-01-25T18:56:31;58.38;;;32.30;;
65049;SDS011;52090;51.224;-2.328;2023-01-25T19:00:13;59.92;;;35.13;;
65049;SDS011;52090;51.224;-2.328;2023-01-25T19:03:57;81.80;;;50.78;;
65049;SDS011;52090;51.224;-2.328;2023-01-25T19:07:39;87.57;;;53.38;;
65049;SDS011;52090;51.224;-2.328;2023-01-25T19:11:21;84.82;;;53.80;;
65049;SDS011;52090;51.224;-2.328;2023-01-25T19:15:03;71.65;;;44.72;;
65049;SDS011;52090;51.224;-2.328;2023-01-25T19:18:47;71.57;;;44.17;;
65049;SDS011;52090;51.224;-2.328;2023-01-25T19:22:30;79.28;;;50.03;;
65049;SDS011;52090;51.224;-2.328;2023-01-25T19:26:13;81.47;;;52.55;;
65049;SDS011;52090;51.224;-2.328;2023-01-25T19:29:56;76.70;;;49.28;;
65049;SDS011;52090;51.224;-2.328;2023-01-25T19:33:38;52.03;;;31.25;;
65049;SDS011;52090;51.224;-2.328;2023-01-25T19:37:20;41.95;;;25.40;;
65049;SDS011;52090;51.224;-2.328;2023-01-25T19:41:09;43.47;;;25.92;;
65049;SDS011;52090;51.224;-2.328;2023-01-25T19:44:53;39.20;;;22.33;;
65049;SDS011;52090;51.224;-2.328;2023-01-25T19:48:34;35.67;;;19.75;;
65049;SDS011;52090;51.224;-2.328;2023-01-25T19:52:17;38.10;;;23.38;;
65049;SDS011;52090;51.224;-2.328;2023-01-25T19:56:05;39.88;;;22.08;;
65049;SDS011;52090;51.224;-2.328;2023-01-25T19:59:48;34.15;;;20.58;;
65049;SDS011;52090;51.224;-2.328;2023-01-25T20:03:30;40.05;;;21.52;;
65049;SDS011;52090;51.224;-2.328;2023-01-25T20:07:12;34.42;;;19.52;;
65049;SDS011;52090;51.224;-2.328;2023-01-25T20:10:58;35.47;;;18.80;;
65049;SDS011;52090;51.224;-2.328;2023-01-25T20:14:40;36.80;;;19.67;;
65049;SDS011;52090;51.224;-2.328;2023-01-25T20:18:23;31.42;;;17.60;;
65049;SDS011;52090;51.224;-2.328;2023-01-25T20:22:06;29.90;;;16.65;;
65049;SDS011;52090;51.224;-2.328;2023-01-25T20:25:54;28.75;;;16.88;;
65049;SDS011;52090;51.224;-2.328;2023-01-25T20:29:37;26.90;;;16.60;;
65049;SDS011;52090;51.224;-2.328;2023-01-25T20:33:20;27.43;;;14.27;;
65049;SDS011;52090;51.224;-2.328;2023-01-25T20:37:02;23.60;;;13.43;;
65049;SDS011;52090;51.224;-2.328;2023-01-25T20:40:43;22.13;;;11.80;;
65049;SDS011;52090;51.224;-2.328;2023-01-25T20:44:25;22.10;;;11.70;;
65049;SDS011;52090;51.224;-2.328;2023-01-25T20:48:10;17.90;;;10.82;;
65049;SDS011;52090;51.224;-2.328;2023-01-25T20:51:51;16.65;;;9.82;;
65049;SDS011;52090;51.224;-2.328;2023-01-25T20:55:33;17.67;;;8.60;;
65049;SDS011;52090;51.224;-2.328;2023-01-25T20:59:15;15.20;;;6.38;;
65049;SDS011;52090;51.224;-2.328;2023-01-25T21:02:59;11.63;;;5.97;;
65049;SDS011;52090;51.224;-2.328;2023-01-25T21:06:41;15.55;;;6.63;;
65049;SDS011;52090;51.224;-2.328;2023-01-25T21:10:23;13.25;;;5.53;;
65049;SDS011;52090;51.224;-2.328;2023-01-25T21:14:04;9.25;;;4.93;;
65049;SDS011;52090;51.224;-2.328;2023-01-25T21:17:49;8.50;;;4.88;;
65049;SDS011;52090;51.224;-2.328;2023-01-25T21:21:32;11.57;;;6.80;;
65049;SDS011;52090;51.224;-2.328;2023-01-25T21:25:15;12.70;;;5.93;;
65049;SDS011;52090;51.224;-2.328;2023-01-25T21:28:57;12.07;;;4.93;;
65049;SDS011;52090;51.224;-2.328;2023-01-25T21:36:23;13.95;;;5.00;;
65049;SDS011;52090;51.224;-2.328;2023-01-25T21:40:06;11.33;;;4.00;;
65049;SDS011;52090;51.224;-2.328;2023-01-25T21:43:49;14.30;;;4.75;;
65049;SDS011;52090;51.224;-2.328;2023-01-25T21:47:50;9.10;;;4.30;;
65049;SDS011;52090;51.224;-2.328;2023-01-25T21:51:32;9.75;;;4.00;;
65049;SDS011;52090;51.224;-2.328;2023-01-25T21:55:16;13.52;;;4.35;;
65049;SDS011;52090;51.224;-2.328;2023-01-25T21:58:58;10.90;;;4.40;;
65049;SDS011;52090;51.224;-2.328;2023-01-25T22:02:41;16.20;;;4.82;;
65049;SDS011;52090;51.224;-2.328;2023-01-25T22:06:23;13.50;;;4.15;;
65049;SDS011;52090;51.224;-2.328;2023-01-25T22:10:05;15.50;;;4.07;;
65049;SDS011;52090;51.224;-2.328;2023-01-25T22:13:47;15.98;;;5.35;;
65049;SDS011;52090;51.224;-2.328;2023-01-25T22:17:29;11.15;;;3.85;;
65049;SDS011;52090;51.224;-2.328;2023-01-25T22:21:15;12.35;;;4.90;;
65049;SDS011;52090;51.224;-2.328;2023-01-25T22:25:01;11.63;;;4.22;;
65049;SDS011;52090;51.224;-2.328;2023-01-25T22:28:44;13.10;;;4.10;;
65049;SDS011;52090;51.224;-2.328;2023-01-25T22:32:28;18.02;;;4.20;;
65049;SDS011;52090;51.224;-2.328;2023-01-25T22:36:10;13.18;;;5.43;;
65049;SDS011;52090;51.224;-2.328;2023-01-25T22:39:53;15.57;;;4.22;;
65049;SDS011;52090;51.224;-2.328;2023-01-25T22:43:38;11.07;;;4.20;;
65049;SDS011;52090;51.224;-2.328;2023-01-25T22:47:21;15.52;;;3.80;;
65049;SDS011;52090;51.224;-2.328;2023-01-25T22:51:07;14.68;;;4.07;;
65049;SDS011;52090;51.224;-2.328;2023-01-25T22:54:57;11.50;;;3.88;;
65049;SDS011;52090;51.224;-2.328;2023-01-25T22:58:39;14.68;;;4.32;;
65049;SDS011;52090;51.224;-2.328;2023-01-25T23:06:04;10.55;;;3.70;;
65049;SDS011;52090;51.224;-2.328;2023-01-25T23:09:48;14.93;;;4.53;;
65049;SDS011;52090;51.224;-2.328;2023-01-25T23:13:31;14.35;;;4.13;;
65049;SDS011;52090;51.224;-2.328;2023-01-25T23:17:14;14.18;;;3.83;;
65049;SDS011;52090;51.224;-2.328;2023-01-25T23:21:20;16.77;;;4.75;;
65049;SDS011;52090;51.224;-2.328;2023-01-25T23:25:03;16.00;;;4.43;;
65049;SDS011;52090;51.224;-2.328;2023-01-25T23:28:49;13.20;;;4.35;;